createdAt,value
2023-04-15T00:02:19.724Z,27.63
2023-04-15T00:04:48.402Z,29.13
2023-04-15T00:07:16.383Z,30.58
2023-04-15T00:09:44.774Z,30.23
2023-04-15T00:12:13.001Z,31.60
2023-04-15T00:14:40.526Z,32.67
2023-04-15T00:17:08.236Z,33.05
2023-04-15T00:19:35.816Z,32.67
2023-04-15T00:22:03.287Z,33.83
2023-04-15T00:24:31.684Z,33.72
2023-04-15T00:26:59.945Z,33.58
2023-04-15T00:29:27.577Z,34.10
2023-04-15T00:31:55.334Z,33.05
2023-04-15T00:34:23.538Z,33.08
2023-04-15T00:36:51.706Z,32.05
2023-04-15T00:39:19.352Z,33.15
2023-04-15T00:41:49.149Z,32.55
2023-04-15T00:44:18.919Z,33.97
2023-04-15T00:46:48.685Z,33.47
2023-04-15T00:49:16.200Z,33.55
2023-04-15T00:51:43.746Z,32.63
2023-04-15T00:54:11.689Z,31.83
2023-04-15T00:56:39.719Z,32.58
2023-04-15T00:59:07.958Z,31.83
2023-04-15T01:01:36.802Z,31.83
2023-04-15T01:04:05.899Z,33.60
2023-04-15T01:06:33.629Z,32.55
2023-04-15T01:09:01.648Z,34.53
2023-04-15T01:11:30.658Z,34.70
2023-04-15T01:13:59.335Z,32.90
2023-04-15T01:16:28.805Z,36.10
2023-04-15T01:18:56.914Z,35.42
2023-04-15T01:21:24.791Z,34.83
2023-04-15T01:23:55.357Z,37.47
2023-04-15T01:26:23.852Z,36.28
2023-04-15T01:28:51.764Z,34.95
2023-04-15T01:31:19.388Z,37.08
2023-04-15T01:33:47.099Z,36.20
2023-04-15T01:36:34.575Z,34.85
2023-04-15T01:39:02.365Z,35.70
2023-04-15T01:41:30.288Z,35.65
2023-04-15T01:43:59.103Z,34.97
2023-04-15T01:46:28.126Z,35.25
2023-04-15T01:48:57.047Z,36.88
2023-04-15T01:51:28.344Z,33.33
2023-04-15T01:53:57.186Z,34.25
2023-04-15T01:56:26.658Z,36.80
2023-04-15T01:58:55.819Z,36.33
2023-04-15T02:01:25.007Z,33.92
2023-04-15T02:03:53.924Z,34.70
2023-04-15T02:06:22.969Z,35.10
2023-04-15T02:08:51.816Z,32.78
2023-04-15T02:11:20.639Z,35.47
2023-04-15T02:13:49.499Z,35.28
2023-04-15T02:16:19.416Z,33.10
2023-04-15T02:18:48.469Z,35.03
2023-04-15T02:21:18.976Z,35.35
2023-04-15T02:23:48.389Z,35.40
2023-04-15T02:26:17.230Z,33.38
2023-04-15T02:28:46.875Z,34.78
2023-04-15T02:31:17.529Z,36.35
2023-04-15T02:33:46.703Z,36.42
2023-04-15T02:36:15.705Z,37.45
2023-04-15T02:38:45.897Z,38.10
2023-04-15T02:41:16.693Z,37.05
2023-04-15T02:43:47.247Z,39.60
2023-04-15T02:46:17.574Z,38.05
2023-04-15T02:48:46.475Z,40.22
2023-04-15T02:51:18.418Z,37.28
2023-04-15T02:53:49.020Z,38.65
2023-04-15T02:56:19.478Z,38.40
2023-04-15T02:58:50.677Z,37.72
2023-04-15T03:01:20.590Z,39.65
2023-04-15T03:03:50.047Z,39.97
2023-04-15T03:06:19.004Z,39.55
2023-04-15T03:08:48.056Z,37.63
2023-04-15T03:11:17.256Z,38.60
2023-04-15T03:13:47.327Z,38.17
2023-04-15T03:16:26.705Z,38.72
2023-04-15T03:18:55.599Z,37.85
2023-04-15T03:21:26.018Z,38.75
2023-04-15T03:23:56.652Z,37.70
2023-04-15T03:26:31.003Z,37.47
2023-04-15T03:29:03.808Z,40.35
2023-04-15T03:31:32.723Z,36.15
2023-04-15T03:34:01.600Z,38.50
2023-04-15T03:36:34.669Z,39.60
2023-04-15T03:39:04.317Z,41.40
2023-04-15T03:41:33.526Z,40.45
2023-04-15T03:44:02.333Z,41.92
2023-04-15T03:46:31.304Z,43.70
2023-04-15T03:49:00.678Z,42.83
2023-04-15T03:51:29.660Z,38.92
2023-04-15T03:53:58.835Z,41.90
2023-04-15T03:56:27.660Z,38.95
2023-04-15T03:58:56.649Z,42.25
2023-04-15T04:01:25.501Z,41.30
2023-04-15T04:03:54.390Z,38.70
2023-04-15T04:06:23.406Z,38.95
2023-04-15T04:08:52.454Z,38.75
2023-04-15T04:11:21.508Z,37.75
2023-04-15T04:13:50.302Z,37.10
2023-04-15T04:16:19.257Z,36.40
2023-04-15T04:18:48.085Z,40.97
2023-04-15T04:21:17.338Z,34.70
2023-04-15T04:23:46.300Z,35.50
2023-04-15T04:26:15.129Z,36.22
2023-04-15T04:28:43.915Z,34.10
2023-04-15T04:31:12.758Z,32.70
2023-04-15T04:33:41.668Z,33.30
2023-04-15T04:36:10.552Z,32.60
2023-04-15T04:38:39.420Z,32.58
2023-04-15T04:41:08.230Z,31.52
2023-04-15T04:43:37.081Z,30.70
2023-04-15T04:46:05.949Z,32.33
2023-04-15T04:48:34.780Z,28.73
2023-04-15T04:51:03.822Z,30.33
2023-04-15T04:53:32.790Z,32.53
2023-04-15T04:56:01.741Z,30.23
2023-04-15T04:58:30.768Z,29.80
2023-04-15T05:00:59.635Z,28.42
2023-04-15T05:03:28.935Z,30.13
2023-04-15T05:05:57.822Z,27.50
2023-04-15T05:08:26.622Z,28.98
2023-04-15T05:10:56.218Z,27.67
2023-04-15T05:13:25.095Z,30.35
2023-04-15T05:15:53.912Z,30.50
2023-04-15T05:18:22.782Z,28.63
2023-04-15T05:20:51.647Z,28.95
2023-04-15T05:23:20.468Z,26.00
2023-04-15T05:25:49.276Z,28.38
2023-04-15T05:28:18.078Z,26.58
2023-04-15T05:30:46.985Z,25.02
2023-04-15T05:33:15.896Z,27.55
2023-04-15T05:35:44.701Z,29.48
2023-04-15T05:38:13.491Z,26.92
2023-04-15T05:40:42.511Z,27.13
2023-04-15T05:43:11.399Z,23.92
2023-04-15T05:45:40.256Z,25.13
2023-04-15T05:48:09.163Z,23.10
2023-04-15T05:50:40.915Z,23.25
2023-04-15T05:53:09.798Z,21.77
2023-04-15T05:55:38.600Z,22.38
2023-04-15T05:58:07.394Z,22.25
2023-04-15T06:00:36.624Z,21.15
2023-04-15T06:03:06.412Z,20.95
2023-04-15T06:05:35.746Z,21.83
2023-04-15T06:08:04.756Z,20.98
2023-04-15T06:10:36.722Z,21.20
2023-04-15T06:13:06.067Z,21.00
2023-04-15T06:15:34.857Z,20.77
2023-04-15T06:18:03.727Z,20.25
2023-04-15T06:20:32.708Z,20.77
2023-04-15T06:23:01.507Z,20.77
2023-04-15T06:25:30.510Z,22.00
2023-04-15T06:27:59.899Z,19.50
2023-04-15T06:30:28.713Z,21.70
2023-04-15T06:32:58.069Z,20.80
2023-04-15T06:35:27.635Z,22.42
2023-04-15T06:37:56.773Z,21.45
2023-04-15T06:40:25.983Z,22.88
2023-04-15T06:42:55.660Z,24.38
2023-04-15T06:45:24.514Z,24.10
2023-04-15T06:47:53.551Z,24.20
2023-04-15T06:50:22.406Z,23.67
2023-04-15T06:52:51.480Z,24.40
2023-04-15T06:55:20.731Z,23.67
2023-04-15T06:57:49.549Z,22.15
2023-04-15T07:00:18.662Z,22.33
2023-04-15T07:02:47.917Z,20.58
2023-04-15T07:05:17.015Z,20.17
2023-04-15T07:07:46.104Z,18.52
2023-04-15T07:10:16.066Z,22.70
2023-04-15T07:12:45.069Z,20.30
2023-04-15T07:15:14.392Z,19.58
2023-04-15T07:17:46.406Z,17.27
2023-04-15T07:20:15.662Z,17.92
2023-04-15T07:22:44.574Z,17.52
2023-04-15T07:25:13.462Z,17.67
2023-04-15T07:27:42.467Z,14.15
2023-04-15T07:30:12.652Z,15.05
2023-04-15T07:32:42.680Z,13.20
2023-04-15T07:35:11.738Z,14.30
2023-04-15T07:37:40.561Z,13.27
2023-04-15T07:40:10.120Z,12.25
2023-04-15T07:42:41.179Z,12.25
2023-04-15T07:45:11.454Z,10.20
2023-04-15T07:47:42.168Z,9.70
2023-04-15T07:50:14.844Z,8.23
2023-04-15T07:52:44.207Z,7.78
2023-04-15T07:55:13.079Z,8.48
2023-04-15T07:57:42.007Z,9.07
2023-04-15T08:00:11.484Z,8.48
2023-04-15T08:02:43.590Z,8.23
2023-04-15T08:05:14.072Z,8.75
2023-04-15T08:07:43.037Z,8.52
2023-04-15T08:10:12.392Z,8.18
2023-04-15T08:12:41.518Z,10.15
2023-04-15T08:15:10.695Z,10.32
2023-04-15T08:17:39.904Z,8.50
2023-04-15T08:20:09.670Z,8.70
2023-04-15T08:22:38.663Z,9.05
2023-04-15T08:25:07.763Z,8.20
2023-04-15T08:27:36.798Z,6.80
2023-04-15T08:30:06.797Z,7.18
2023-04-15T08:32:35.662Z,7.40
2023-04-15T08:35:04.787Z,7.22
2023-04-15T08:37:32.307Z,6.50
2023-04-15T08:40:01.505Z,6.20
2023-04-15T08:42:38.951Z,6.95
2023-04-15T08:45:10.199Z,7.00
2023-04-15T08:47:40.400Z,6.50
2023-04-15T08:50:10.782Z,6.75
2023-04-15T08:52:40.320Z,7.28
2023-04-15T08:55:11.605Z,7.22
2023-04-15T08:57:40.547Z,7.30
2023-04-15T09:00:10.457Z,8.90
2023-04-15T09:02:40.168Z,6.90
2023-04-15T09:05:09.520Z,5.15
2023-04-15T09:07:38.359Z,5.03
2023-04-15T09:10:08.163Z,4.65
2023-04-15T09:12:37.765Z,4.18
2023-04-15T09:15:08.897Z,4.53
2023-04-15T09:17:43.774Z,4.85
2023-04-15T09:20:14.924Z,4.40
2023-04-15T09:22:45.604Z,4.60
2023-04-15T09:25:23.461Z,5.60
2023-04-15T09:27:57.531Z,4.20
2023-04-15T09:30:28.162Z,3.75
2023-04-15T09:33:11.090Z,4.17
2023-04-15T09:35:40.037Z,3.72
2023-04-15T09:38:10.292Z,3.80
2023-04-15T09:40:42.575Z,3.67
2023-04-15T09:43:14.455Z,3.83
2023-04-15T09:45:54.039Z,4.75
2023-04-15T09:48:28.866Z,4.70
2023-04-15T09:51:01.943Z,4.57
2023-04-15T09:53:34.497Z,4.57
2023-04-15T09:56:03.745Z,4.40
2023-04-15T09:58:35.729Z,4.00
2023-04-15T10:01:06.382Z,6.10
2023-04-15T10:03:39.108Z,4.20
2023-04-15T10:06:09.255Z,4.88
2023-04-15T10:08:39.199Z,3.92
2023-04-15T10:11:08.674Z,4.75
2023-04-15T10:13:38.951Z,3.92
2023-04-15T10:16:11.996Z,4.40
2023-04-15T10:18:46.755Z,4.20
2023-04-15T10:21:18.730Z,4.70
2023-04-15T10:23:47.814Z,4.35
2023-04-15T10:26:20.058Z,3.50
2023-04-15T10:28:49.667Z,3.83
2023-04-15T10:31:20.074Z,3.75
2023-04-15T10:33:49.831Z,3.50
2023-04-15T10:36:19.633Z,4.15
2023-04-15T10:38:48.541Z,3.80
2023-04-15T10:41:21.277Z,3.75
2023-04-15T10:43:55.223Z,3.70
2023-04-15T10:46:25.856Z,3.83
2023-04-15T10:48:55.044Z,4.33
2023-04-15T10:51:31.572Z,3.67
2023-04-15T10:54:00.910Z,3.63
2023-04-15T10:56:31.112Z,4.13
2023-04-15T10:59:01.420Z,4.15
2023-04-15T11:01:56.854Z,4.32
2023-04-15T11:04:57.803Z,8.45
2023-04-15T11:07:48.576Z,6.85
2023-04-15T11:10:26.290Z,6.35
2023-04-15T11:12:59.124Z,6.00
2023-04-15T11:15:33.373Z,6.10
2023-04-15T11:18:26.078Z,6.30
2023-04-15T11:20:57.608Z,6.45
2023-04-15T11:23:38.806Z,6.35
2023-04-15T11:26:10.222Z,6.82
2023-04-15T11:28:43.892Z,5.70
2023-04-15T11:31:15.305Z,5.97
2023-04-15T11:34:02.607Z,6.30
2023-04-15T11:36:34.788Z,5.32
2023-04-15T11:39:07.563Z,5.88
2023-04-15T11:41:36.557Z,5.20
2023-04-15T11:44:19.472Z,5.13
2023-04-15T11:46:48.294Z,5.50
2023-04-15T11:49:28.091Z,5.50
2023-04-15T11:51:55.798Z,5.53
2023-04-15T11:54:23.318Z,4.75
2023-04-15T11:56:52.665Z,4.57
2023-04-15T11:59:20.504Z,4.38
2023-04-15T12:01:48.126Z,4.60
2023-04-15T12:04:22.572Z,4.22
2023-04-15T12:06:52.647Z,4.03
2023-04-15T12:09:21.877Z,3.58
2023-04-15T12:11:51.428Z,4.15
2023-04-15T12:14:39.875Z,3.90
2023-04-15T12:17:07.391Z,3.70
2023-04-15T12:19:42.633Z,3.88
2023-04-15T12:22:11.080Z,3.67
2023-04-15T12:24:39.622Z,3.15
2023-04-15T12:27:09.260Z,3.58
2023-04-15T12:29:38.787Z,3.55
2023-04-15T12:32:15.621Z,3.65
2023-04-15T12:34:54.499Z,3.42
2023-04-15T12:37:23.075Z,3.00
2023-04-15T12:39:50.924Z,2.67
2023-04-15T12:42:19.069Z,3.30
2023-04-15T12:44:46.984Z,3.33
2023-04-15T12:47:14.666Z,3.35
2023-04-15T12:49:42.319Z,3.33
2023-04-15T12:52:09.990Z,3.10
2023-04-15T12:54:37.540Z,3.25
2023-04-15T12:57:07.128Z,3.17
2023-04-15T12:59:36.010Z,3.15
2023-04-15T13:02:04.337Z,2.80
2023-04-15T13:04:32.098Z,3.40
2023-04-15T13:06:59.974Z,3.42
2023-04-15T13:09:27.526Z,3.13
2023-04-15T13:11:56.120Z,3.80
2023-04-15T13:14:23.716Z,3.00
2023-04-15T13:16:51.229Z,3.33
2023-04-15T13:19:18.715Z,4.22
2023-04-15T13:21:46.455Z,3.10
2023-04-15T13:24:13.962Z,3.30
2023-04-15T13:26:41.992Z,3.45
2023-04-15T13:29:09.899Z,2.88
2023-04-15T13:31:37.543Z,2.95
2023-04-15T13:34:05.665Z,3.28
2023-04-15T13:36:33.428Z,3.20
2023-04-15T13:39:00.964Z,3.88
2023-04-15T13:41:28.488Z,3.10
2023-04-15T13:43:56.628Z,3.15
2023-04-15T13:46:25.777Z,2.80
2023-04-15T13:48:53.612Z,3.17
2023-04-15T13:51:21.200Z,3.03
2023-04-15T13:53:48.743Z,3.63
2023-04-15T13:56:16.288Z,2.47
2023-04-15T13:58:43.870Z,2.70
2023-04-15T14:01:11.424Z,2.80
2023-04-15T14:03:39.304Z,2.33
2023-04-15T14:06:07.282Z,3.28
2023-04-15T14:08:34.846Z,3.00
2023-04-15T14:11:02.392Z,2.80
2023-04-15T14:13:30.030Z,3.20
2023-04-15T14:15:57.541Z,3.33
2023-04-15T14:18:25.355Z,4.15
2023-04-15T14:20:53.000Z,2.83
2023-04-15T14:23:20.482Z,3.05
2023-04-15T14:25:48.541Z,2.53
2023-04-15T14:28:16.557Z,2.55
2023-04-15T14:30:44.231Z,3.00
2023-04-15T14:33:12.076Z,2.67
2023-04-15T14:35:39.629Z,3.00
2023-04-15T14:38:10.614Z,5.88
2023-04-15T14:40:38.580Z,3.13
2023-04-15T14:43:06.188Z,3.35
2023-04-15T14:45:33.960Z,2.60
2023-04-15T14:48:01.606Z,2.67
2023-04-15T14:50:29.267Z,2.45
2023-04-15T14:52:56.766Z,2.92
2023-04-15T14:55:24.401Z,2.70
2023-04-15T14:57:51.906Z,2.33
2023-04-15T15:00:19.600Z,2.33
2023-04-15T15:02:47.572Z,2.35
2023-04-15T15:05:16.303Z,2.75
2023-04-15T15:07:43.965Z,2.58
2023-04-15T15:10:11.629Z,2.20
2023-04-15T15:12:39.332Z,2.50
2023-04-15T15:15:19.531Z,2.80
2023-04-15T15:17:54.417Z,2.83
2023-04-15T15:20:23.084Z,3.13
2023-04-15T15:22:50.998Z,3.20
2023-04-15T15:25:18.654Z,2.90
2023-04-15T15:27:46.413Z,2.67
2023-04-15T15:30:14.206Z,2.80
2023-04-15T15:32:42.786Z,2.70
2023-04-15T15:35:11.076Z,2.67
2023-04-15T15:37:38.680Z,3.15
2023-04-15T15:40:07.500Z,2.80
2023-04-15T15:42:36.064Z,2.55
2023-04-15T15:45:04.753Z,3.20
2023-04-15T15:47:32.944Z,2.65
2023-04-15T15:50:02.025Z,2.60
2023-04-15T15:52:30.754Z,2.83
2023-04-15T15:54:58.341Z,3.22
2023-04-15T15:57:26.059Z,2.50
2023-04-15T16:00:01.998Z,2.90
2023-04-15T16:03:04.162Z,2.50
2023-04-15T16:05:25.646Z,2.35
2023-04-15T16:07:53.266Z,2.40
2023-04-15T16:10:20.970Z,2.72
2023-04-15T16:12:48.564Z,2.40
2023-04-15T16:15:16.252Z,2.50
2023-04-15T16:17:44.414Z,2.53
2023-04-15T16:20:12.260Z,2.70
2023-04-15T16:22:39.790Z,2.70
2023-04-15T16:25:07.598Z,2.38
2023-04-15T16:27:46.494Z,2.47
2023-04-15T16:30:22.326Z,2.75
2023-04-15T16:32:49.874Z,2.45
2023-04-15T16:35:17.709Z,2.47
2023-04-15T16:37:45.298Z,2.45
2023-04-15T16:40:12.981Z,2.33
2023-04-15T16:42:43.413Z,4.47
2023-04-15T16:45:11.319Z,2.40
2023-04-15T16:47:38.857Z,2.17
2023-04-15T16:50:07.218Z,2.13
2023-04-15T16:52:34.920Z,2.47
2023-04-15T16:55:03.279Z,2.33
2023-04-15T16:58:00.455Z,2.78
2023-04-15T17:00:18.595Z,2.50
2023-04-15T17:02:46.553Z,2.20
2023-04-15T17:05:14.153Z,2.85
2023-04-15T17:07:41.757Z,2.90
2023-04-15T17:10:09.437Z,2.88
2023-04-15T17:12:36.976Z,7.60
2023-04-15T17:15:05.373Z,4.30
2023-04-15T17:17:33.355Z,3.55
2023-04-15T17:20:00.948Z,3.60
2023-04-15T17:22:31.278Z,3.38
2023-04-15T17:24:59.050Z,4.63
2023-04-15T17:27:31.515Z,3.30
2023-04-15T17:30:07.204Z,3.80
2023-04-15T17:32:54.870Z,3.45
2023-04-15T17:35:42.471Z,3.80
2023-04-15T17:38:29.957Z,3.65
2023-04-15T17:40:57.585Z,4.18
2023-04-15T17:43:45.020Z,4.18
2023-04-15T17:46:32.591Z,4.03
2023-04-15T17:49:20.148Z,3.72
2023-04-15T17:52:08.071Z,3.38
2023-04-15T17:54:55.912Z,3.70
2023-04-15T17:57:44.730Z,3.40
2023-04-15T18:00:32.203Z,3.30
2023-04-15T18:03:19.838Z,3.53
2023-04-15T18:06:07.413Z,3.58
2023-04-15T18:08:55.003Z,3.30
2023-04-15T18:11:45.013Z,3.30
2023-04-15T18:14:34.926Z,4.25
2023-04-15T18:17:22.838Z,3.60
2023-04-15T18:20:10.877Z,4.10
2023-04-15T18:22:38.440Z,3.72
2023-04-15T18:25:06.575Z,4.05
2023-04-15T18:27:34.651Z,4.20
2023-04-15T18:30:02.247Z,4.97
2023-04-15T18:32:32.624Z,3.88
2023-04-15T18:35:00.832Z,4.37
2023-04-15T18:37:31.567Z,4.00
2023-04-15T18:39:59.541Z,4.17
2023-04-15T18:42:27.143Z,4.57
2023-04-15T18:44:55.333Z,4.57
2023-04-15T18:47:24.247Z,4.90
2023-04-15T18:49:52.850Z,4.25
2023-04-15T18:52:20.662Z,4.93
2023-04-15T18:54:48.144Z,4.18
2023-04-15T18:57:23.552Z,4.70
2023-04-15T18:59:58.720Z,4.38
2023-04-15T19:02:27.294Z,5.43
2023-04-15T19:04:54.902Z,6.70
2023-04-15T19:07:23.136Z,6.53
2023-04-15T19:09:50.690Z,4.93
2023-04-15T19:12:18.196Z,5.45
2023-04-15T19:14:45.807Z,4.97
2023-04-15T19:17:13.438Z,4.90
2023-04-15T19:19:41.232Z,6.35
2023-04-15T19:22:09.376Z,7.13
2023-04-15T19:24:37.239Z,6.78
2023-04-15T19:27:04.997Z,5.28
2023-04-15T19:29:33.662Z,5.95
2023-04-15T19:32:01.432Z,6.28
2023-04-15T19:34:29.108Z,6.40
2023-04-15T19:36:57.178Z,6.20
2023-04-15T19:39:25.002Z,6.18
2023-04-15T19:41:55.498Z,7.47
2023-04-15T19:44:23.194Z,5.95
2023-04-15T19:46:53.278Z,6.55
2023-04-15T19:49:21.343Z,6.75
2023-04-15T19:51:52.508Z,6.47
2023-04-15T19:54:20.286Z,6.63
2023-04-15T19:56:48.035Z,6.20
2023-04-15T19:59:15.767Z,6.43
2023-04-15T20:01:43.412Z,6.45
2023-04-15T20:04:11.138Z,7.00
2023-04-15T20:06:38.998Z,10.98
2023-04-15T20:09:07.684Z,19.98
2023-04-15T20:12:09.681Z,32.35
2023-04-15T20:14:25.156Z,27.88
2023-04-15T20:16:52.735Z,11.80
2023-04-15T20:19:20.348Z,10.50
2023-04-15T20:21:48.742Z,10.88
2023-04-15T20:24:17.871Z,10.80
2023-04-15T20:26:45.571Z,16.77
2023-04-15T20:29:13.898Z,13.48
2023-04-15T20:31:41.555Z,15.73
2023-04-15T20:34:11.974Z,20.17
2023-04-15T20:36:39.783Z,22.75
2023-04-15T20:39:07.910Z,21.23
2023-04-15T20:41:35.676Z,22.15
2023-04-15T20:44:03.458Z,16.65
2023-04-15T20:46:31.148Z,17.70
2023-04-15T20:48:58.693Z,18.65
2023-04-15T20:51:27.468Z,16.52
2023-04-15T20:53:55.601Z,12.07
2023-04-15T20:56:23.074Z,13.55
2023-04-15T20:58:50.592Z,18.35
2023-04-15T21:01:18.282Z,23.38
2023-04-15T21:03:46.130Z,25.15
2023-04-15T21:06:13.819Z,24.42
2023-04-15T21:08:41.387Z,24.65
2023-04-15T21:11:08.950Z,24.48
2023-04-15T21:13:36.486Z,24.27
2023-04-15T21:16:04.302Z,19.60
2023-04-15T21:18:31.799Z,18.85
2023-04-15T21:21:02.910Z,17.80
2023-04-15T21:23:30.791Z,15.68
2023-04-15T21:25:59.150Z,16.20
2023-04-15T21:28:28.126Z,15.98
2023-04-15T21:30:59.274Z,15.07
2023-04-15T21:33:27.218Z,15.27
2023-04-15T21:35:54.737Z,14.20
2023-04-15T21:38:23.528Z,15.88
2023-04-15T21:40:51.350Z,15.98
2023-04-15T21:43:19.174Z,15.27
2023-04-15T21:46:21.125Z,15.00
2023-04-15T21:48:34.252Z,16.23
2023-04-15T21:51:02.168Z,15.73
2023-04-15T21:53:29.685Z,16.40
2023-04-15T21:55:57.266Z,15.65
2023-04-15T21:58:24.778Z,14.40
2023-04-15T22:00:53.028Z,14.57
2023-04-15T22:03:20.985Z,13.50
2023-04-15T22:05:48.671Z,13.63
2023-04-15T22:08:16.217Z,14.05
2023-04-15T22:10:44.154Z,13.82
2023-04-15T22:13:12.858Z,12.95
2023-04-15T22:15:41.552Z,13.32
2023-04-15T22:18:09.279Z,12.20
2023-04-15T22:20:36.812Z,14.23
2023-04-15T22:23:07.760Z,13.30
2023-04-15T22:25:37.159Z,14.25
2023-04-15T22:28:08.940Z,14.75
2023-04-15T22:30:40.648Z,14.32
2023-04-15T22:33:09.369Z,14.40
2023-04-15T22:35:37.474Z,14.88
2023-04-15T22:38:05.468Z,15.07
2023-04-15T22:40:33.322Z,13.38
2023-04-15T22:43:00.971Z,13.15
2023-04-15T22:45:28.567Z,13.23
2023-04-15T22:47:56.192Z,13.25
2023-04-15T22:50:23.811Z,14.38
2023-04-15T22:52:51.379Z,15.05
2023-04-15T22:55:19.000Z,14.45
2023-04-15T22:57:46.472Z,12.70
2023-04-15T23:00:14.150Z,13.60
2023-04-15T23:02:41.982Z,12.63
2023-04-15T23:05:12.861Z,13.27
2023-04-15T23:07:41.125Z,13.48
2023-04-15T23:10:09.313Z,13.40
2023-04-15T23:12:36.803Z,13.13
2023-04-15T23:15:04.625Z,13.52
2023-04-15T23:17:32.452Z,14.25
2023-04-15T23:19:59.928Z,14.52
2023-04-15T23:22:27.450Z,14.48
2023-04-15T23:24:55.014Z,14.68
2023-04-15T23:27:22.870Z,15.80
2023-04-15T23:29:50.751Z,15.98
2023-04-15T23:32:18.377Z,14.90
2023-04-15T23:34:45.995Z,13.93
2023-04-15T23:37:13.954Z,15.23
2023-04-15T23:39:41.406Z,15.23
2023-04-15T23:42:08.988Z,13.73
2023-04-15T23:44:38.308Z,14.65
2023-04-15T23:47:06.000Z,14.05
2023-04-15T23:49:33.667Z,13.77
2023-04-15T23:52:01.169Z,14.68
2023-04-15T23:54:28.727Z,14.60
2023-04-15T23:56:56.473Z,15.23
2023-04-15T23:59:24.062Z,14.82
